createdAt,value
2022-08-11T00:01:59.154Z,4.10
2022-08-11T00:04:28.943Z,3.72
2022-08-11T00:07:05.192Z,4.05
2022-08-11T00:09:39.012Z,3.72
2022-08-11T00:12:14.781Z,4.20
2022-08-11T00:14:43.587Z,4.38
2022-08-11T00:17:13.506Z,3.60
2022-08-11T00:20:11.513Z,3.90
2022-08-11T00:22:34.136Z,3.67
2022-08-11T00:25:03.995Z,3.53
2022-08-11T00:27:35.887Z,3.58
2022-08-11T00:30:04.529Z,3.72
2022-08-11T00:32:33.629Z,3.50
2022-08-11T00:35:56.997Z,3.83
2022-08-11T00:37:55.903Z,4.03
2022-08-11T00:40:26.909Z,4.10
2022-08-11T00:43:01.042Z,3.75
2022-08-11T00:45:30.925Z,3.40
2022-08-11T00:48:05.512Z,3.60
2022-08-11T00:50:39.867Z,3.33
2022-08-11T00:53:19.092Z,4.25
2022-08-11T00:56:06.196Z,3.78
2022-08-11T00:58:58.848Z,3.85
2022-08-11T01:01:30.628Z,3.60
2022-08-11T01:04:11.878Z,4.07
2022-08-11T01:06:46.813Z,3.55
2022-08-11T01:09:36.231Z,4.10
2022-08-11T01:12:28.355Z,3.88
2022-08-11T01:15:17.439Z,3.30
2022-08-11T01:18:10.394Z,3.30
2022-08-11T01:20:57.658Z,3.53
2022-08-11T01:23:49.112Z,3.60
2022-08-11T01:26:38.088Z,3.22
2022-08-11T01:29:27.721Z,3.28
2022-08-11T01:32:06.731Z,3.60
2022-08-11T01:34:54.079Z,3.70
2022-08-11T01:37:52.669Z,3.80
2022-08-11T01:40:38.637Z,3.17
2022-08-11T01:43:33.754Z,3.88
2022-08-11T01:46:06.606Z,3.58
2022-08-11T01:48:43.431Z,3.90
2022-08-11T01:51:19.596Z,4.20
2022-08-11T01:53:53.121Z,3.60
2022-08-11T01:56:31.950Z,3.72
2022-08-11T01:59:07.270Z,3.50
2022-08-11T02:01:44.478Z,3.67
2022-08-11T02:04:20.963Z,4.22
2022-08-11T02:06:58.431Z,3.83
2022-08-11T02:09:31.111Z,3.47
2022-08-11T02:12:15.173Z,3.97
2022-08-11T02:15:04.722Z,3.92
2022-08-11T02:17:49.483Z,3.90
2022-08-11T02:20:39.931Z,3.33
2022-08-11T02:23:59.615Z,3.60
2022-08-11T02:26:33.992Z,3.72
2022-08-11T02:29:07.503Z,3.72
2022-08-11T02:32:24.753Z,3.85
2022-08-11T02:34:59.778Z,3.97
2022-08-11T02:37:34.923Z,4.03
2022-08-11T02:40:11.388Z,3.72
2022-08-11T02:42:42.709Z,3.95
2022-08-11T02:45:20.985Z,3.85
2022-08-11T02:48:07.699Z,3.95
2022-08-11T02:50:39.928Z,4.20
2022-08-11T02:53:11.272Z,4.00
2022-08-11T02:55:56.251Z,4.18
2022-08-11T02:58:32.771Z,3.97
2022-08-11T03:01:11.536Z,3.60
2022-08-11T03:03:45.114Z,3.60
2022-08-11T03:06:16.836Z,3.35
2022-08-11T03:08:52.656Z,3.78
2022-08-11T03:11:42.541Z,3.33
2022-08-11T03:14:32.270Z,3.60
2022-08-11T03:17:06.395Z,3.42
2022-08-11T03:19:38.599Z,3.45
2022-08-11T03:22:19.060Z,3.75
2022-08-11T03:24:54.140Z,3.55
2022-08-11T03:27:29.067Z,3.58
2022-08-11T03:30:05.394Z,3.92
2022-08-11T03:32:38.130Z,3.97
2022-08-11T03:35:06.701Z,3.50
2022-08-11T03:37:52.885Z,4.20
2022-08-11T03:40:50.661Z,3.63
2022-08-11T03:43:23.887Z,3.85
2022-08-11T03:45:58.162Z,3.60
2022-08-11T03:48:33.779Z,3.33
2022-08-11T03:51:09.437Z,3.70
2022-08-11T03:53:46.405Z,3.40
2022-08-11T03:56:28.016Z,3.70
2022-08-11T03:59:20.522Z,4.05
2022-08-11T04:02:07.076Z,3.60
2022-08-11T04:04:54.740Z,3.40
2022-08-11T04:07:41.579Z,3.40
2022-08-11T04:10:16.511Z,4.05
2022-08-11T04:13:10.614Z,4.13
2022-08-11T04:16:00.866Z,4.10
2022-08-11T04:19:00.797Z,3.88
2022-08-11T04:21:43.258Z,4.22
2022-08-11T04:24:36.299Z,3.72
2022-08-11T04:27:37.413Z,3.80
2022-08-11T04:30:13.267Z,4.18
2022-08-11T04:32:50.523Z,4.07
2022-08-11T04:35:28.524Z,3.97
2022-08-11T04:38:15.576Z,4.00
2022-08-11T04:41:04.042Z,4.03
2022-08-11T04:44:02.668Z,4.45
2022-08-11T04:46:49.774Z,4.10
2022-08-11T04:49:53.588Z,4.33
2022-08-11T04:52:56.947Z,3.97
2022-08-11T04:55:52.683Z,4.00
2022-08-11T04:58:40.867Z,3.85
2022-08-11T05:01:38.115Z,3.72
2022-08-11T05:04:28.320Z,3.30
2022-08-11T05:07:11.846Z,4.18
2022-08-11T05:09:56.071Z,3.83
2022-08-11T05:12:31.272Z,4.13
2022-08-11T05:15:18.115Z,3.97
2022-08-11T05:18:13.757Z,4.00
2022-08-11T05:21:28.856Z,4.43
2022-08-11T05:24:16.806Z,3.92
2022-08-11T05:27:11.345Z,3.83
2022-08-11T05:30:01.083Z,3.65
2022-08-11T05:32:49.907Z,4.18
2022-08-11T05:36:01.224Z,3.63
2022-08-11T05:38:30.377Z,3.72
2022-08-11T05:41:16.633Z,3.67
2022-08-11T05:44:21.880Z,3.88
2022-08-11T05:47:08.823Z,4.15
2022-08-11T05:49:55.347Z,3.90
2022-08-11T05:52:45.055Z,3.38
2022-08-11T05:55:34.079Z,3.25
2022-08-11T05:58:04.010Z,3.85
2022-08-11T06:00:34.540Z,3.65
2022-08-11T06:03:07.487Z,3.80
2022-08-11T06:05:43.520Z,3.80
2022-08-11T06:08:13.870Z,3.90
2022-08-11T06:10:43.299Z,4.05
2022-08-11T06:13:12.304Z,3.45
2022-08-11T06:15:48.040Z,3.38
2022-08-11T06:18:17.341Z,3.72
2022-08-11T06:20:49.927Z,3.60
2022-08-11T06:23:20.587Z,3.50
2022-08-11T06:25:49.391Z,3.50
2022-08-11T06:28:21.379Z,3.28
2022-08-11T06:30:53.474Z,3.13
2022-08-11T06:33:31.665Z,3.85
2022-08-11T06:36:04.656Z,3.90
2022-08-11T06:38:40.642Z,3.60
2022-08-11T06:41:34.790Z,3.72
2022-08-11T06:44:17.535Z,3.20
2022-08-11T06:46:49.051Z,3.22
2022-08-11T06:49:37.305Z,3.50
2022-08-11T06:52:06.746Z,3.80
2022-08-11T06:54:45.529Z,3.20
2022-08-11T06:57:32.598Z,3.70
2022-08-11T07:00:19.268Z,3.50
2022-08-11T07:02:53.689Z,3.15
2022-08-11T07:05:24.631Z,3.22
2022-08-11T07:08:34.114Z,3.63
2022-08-11T07:11:33.290Z,3.30
2022-08-11T07:14:20.938Z,3.20
2022-08-11T07:16:50.200Z,3.40
2022-08-11T07:19:40.643Z,3.20
2022-08-11T07:22:29.754Z,3.78
2022-08-11T07:25:18.242Z,3.40
2022-08-11T07:28:06.014Z,3.25
2022-08-11T07:30:38.832Z,3.28
2022-08-11T07:33:07.359Z,2.80
2022-08-11T07:35:38.919Z,3.10
2022-08-11T07:38:09.696Z,3.45
2022-08-11T07:40:38.525Z,2.90
2022-08-11T07:43:08.032Z,2.90
2022-08-11T07:45:54.058Z,2.90
2022-08-11T07:48:40.037Z,2.80
2022-08-11T07:51:27.328Z,3.33
2022-08-11T07:54:03.160Z,2.67
2022-08-11T07:56:42.971Z,2.97
2022-08-11T08:00:00.191Z,2.78
2022-08-11T08:02:49.338Z,2.67
2022-08-11T08:05:36.962Z,2.70
2022-08-11T08:08:24.651Z,2.53
2022-08-11T08:11:11.207Z,2.33
2022-08-11T08:13:57.285Z,2.90
2022-08-11T08:16:43.789Z,2.35
2022-08-11T08:19:14.127Z,2.30
2022-08-11T08:21:45.383Z,2.40
2022-08-11T08:24:15.716Z,2.75
2022-08-11T08:27:00.130Z,2.70
2022-08-11T08:29:47.075Z,2.40
2022-08-11T08:32:16.749Z,2.42
2022-08-11T08:34:45.655Z,1.83
2022-08-11T08:37:45.948Z,2.50
2022-08-11T08:40:06.192Z,2.33
2022-08-11T08:42:41.717Z,2.70
2022-08-11T08:45:15.805Z,2.80
2022-08-11T08:47:47.813Z,2.40
2022-08-11T08:50:21.457Z,2.45
2022-08-11T08:52:58.038Z,2.63
2022-08-11T08:55:29.171Z,2.97
2022-08-11T08:58:00.629Z,2.70
2022-08-11T09:00:39.540Z,2.50
2022-08-11T09:03:23.208Z,2.90
2022-08-11T09:05:57.033Z,2.90
2022-08-11T09:08:27.559Z,3.65
2022-08-11T09:11:14.566Z,2.88
2022-08-11T09:13:44.454Z,2.58
2022-08-11T09:16:13.343Z,2.63
2022-08-11T09:18:44.590Z,2.30
2022-08-11T09:21:14.802Z,2.45
2022-08-11T09:24:26.330Z,2.60
2022-08-11T09:27:04.167Z,2.42
2022-08-11T09:29:33.234Z,2.47
2022-08-11T09:32:01.911Z,2.70
2022-08-11T09:34:30.428Z,2.70
2022-08-11T09:37:54.623Z,3.50
2022-08-11T09:40:27.214Z,2.90
2022-08-11T09:43:15.299Z,2.40
2022-08-11T09:45:50.556Z,2.75
2022-08-11T09:48:19.834Z,2.65
2022-08-11T09:50:49.919Z,2.50
2022-08-11T09:53:36.198Z,2.63
2022-08-11T09:56:21.312Z,2.30
2022-08-11T09:58:51.125Z,2.30
2022-08-11T10:01:28.070Z,2.38
2022-08-11T10:04:01.423Z,2.67
2022-08-11T10:09:20.289Z,2.40
2022-08-11T10:11:55.553Z,2.30
2022-08-11T10:14:45.720Z,2.58
2022-08-11T10:17:15.062Z,1.83
2022-08-11T10:20:04.288Z,2.17
2022-08-11T10:22:52.032Z,1.98
2022-08-11T10:25:38.572Z,2.00
2022-08-11T10:28:28.517Z,2.00
2022-08-11T10:31:16.713Z,1.73
2022-08-11T10:34:01.528Z,1.83
2022-08-11T10:36:31.062Z,2.00
2022-08-11T10:39:00.313Z,1.67
2022-08-11T10:42:07.297Z,1.70
2022-08-11T10:44:39.985Z,1.63
2022-08-11T10:47:27.629Z,2.05
2022-08-11T10:50:10.097Z,2.20
2022-08-11T10:52:57.379Z,2.43
2022-08-11T10:55:59.824Z,1.90
2022-08-11T10:58:47.896Z,1.80
2022-08-11T11:01:16.709Z,1.83
2022-08-11T11:03:48.520Z,2.00
2022-08-11T11:06:28.265Z,1.50
2022-08-11T11:09:04.137Z,1.77
2022-08-11T11:11:53.593Z,2.10
2022-08-11T11:14:46.015Z,1.85
2022-08-11T11:17:39.959Z,1.77
2022-08-11T11:20:36.277Z,1.60
2022-08-11T11:23:03.593Z,1.77
2022-08-11T11:25:40.478Z,2.10
2022-08-11T11:28:23.649Z,2.38
2022-08-11T11:33:22.941Z,2.00
2022-08-11T11:35:57.569Z,1.80
2022-08-11T11:38:26.239Z,1.60
2022-08-11T11:41:08.660Z,2.10
2022-08-11T11:43:37.876Z,1.67
2022-08-11T11:46:07.765Z,1.70
2022-08-11T11:48:37.509Z,2.17
2022-08-11T11:51:07.489Z,2.00
2022-08-11T11:53:36.586Z,1.83
2022-08-11T11:56:05.235Z,1.80
2022-08-11T11:58:51.354Z,1.75
2022-08-11T12:01:24.175Z,1.67
2022-08-11T12:06:23.619Z,1.80
2022-08-11T12:08:52.641Z,1.90
2022-08-11T12:11:39.655Z,1.70
2022-08-11T12:14:10.344Z,1.70
2022-08-11T12:16:39.775Z,1.90
2022-08-11T12:19:11.860Z,1.75
2022-08-11T12:22:03.984Z,1.67
2022-08-11T12:24:50.831Z,1.63
2022-08-11T12:27:25.553Z,2.00
2022-08-11T12:29:55.988Z,1.45
2022-08-11T12:32:25.510Z,1.63
2022-08-11T12:34:54.087Z,1.52
2022-08-11T12:37:27.189Z,1.60
2022-08-11T12:40:43.182Z,2.00
2022-08-11T12:43:24.306Z,1.40
2022-08-11T12:46:07.411Z,1.55
2022-08-11T12:49:02.031Z,1.70
2022-08-11T12:52:12.734Z,1.80
2022-08-11T12:54:46.517Z,1.80
2022-08-11T12:57:36.635Z,1.60
2022-08-11T13:00:24.589Z,1.67
2022-08-11T13:03:10.919Z,1.90
2022-08-11T13:05:40.189Z,1.50
2022-08-11T13:08:15.328Z,1.42
2022-08-11T13:11:02.920Z,1.50
2022-08-11T13:13:55.313Z,1.63
2022-08-11T13:16:21.476Z,1.58
2022-08-11T13:18:50.882Z,1.23
2022-08-11T13:21:21.748Z,1.55
2022-08-11T13:23:59.429Z,1.38
2022-08-11T13:26:47.136Z,1.83
2022-08-11T13:29:20.098Z,1.98
2022-08-11T13:31:48.624Z,1.67
2022-08-11T13:34:17.576Z,1.40
2022-08-11T13:36:46.345Z,1.55
2022-08-11T13:39:15.280Z,2.08
2022-08-11T13:41:50.076Z,1.67
2022-08-11T13:44:25.237Z,1.63
2022-08-11T13:46:56.358Z,1.88
2022-08-11T13:49:27.150Z,1.45
2022-08-11T13:51:56.453Z,1.67
2022-08-11T13:54:26.268Z,1.83
2022-08-11T13:56:57.472Z,1.50
2022-08-11T13:59:30.359Z,1.83
2022-08-11T14:02:21.965Z,1.73
2022-08-11T14:04:54.691Z,1.70
2022-08-11T14:07:23.694Z,1.67
2022-08-11T14:09:56.569Z,1.65
2022-08-11T14:12:45.454Z,1.70
2022-08-11T14:15:20.137Z,1.67
2022-08-11T14:17:51.231Z,1.80
2022-08-11T14:20:38.273Z,1.58
2022-08-11T14:23:10.881Z,1.40
2022-08-11T14:26:01.932Z,1.70
2022-08-11T14:28:39.963Z,1.95
2022-08-11T14:31:12.369Z,1.73
2022-08-11T14:34:00.575Z,1.40
2022-08-11T14:36:30.607Z,1.55
2022-08-11T14:38:59.324Z,1.45
2022-08-11T14:42:10.008Z,1.67
2022-08-11T14:44:54.473Z,1.70
2022-08-11T14:47:29.374Z,1.98
2022-08-11T14:50:09.977Z,1.20
2022-08-11T14:52:40.822Z,1.60
2022-08-11T14:55:27.498Z,1.52
2022-08-11T14:57:57.009Z,1.30
2022-08-11T15:00:27.741Z,1.52
2022-08-11T15:03:11.197Z,1.50
2022-08-11T15:05:56.474Z,1.42
2022-08-11T15:08:48.510Z,1.60
2022-08-11T15:11:35.310Z,1.67
2022-08-11T15:14:04.931Z,1.75
2022-08-11T15:17:07.270Z,1.63
2022-08-11T15:19:40.126Z,1.60
2022-08-11T15:22:28.318Z,1.90
2022-08-11T15:24:56.918Z,1.60
2022-08-11T15:27:43.924Z,1.55
2022-08-11T15:30:33.070Z,1.70
2022-08-11T15:33:22.936Z,1.40
2022-08-11T15:36:09.401Z,2.00
2022-08-11T15:38:41.793Z,1.65
2022-08-11T15:41:29.175Z,1.90
2022-08-11T15:44:15.405Z,1.77
2022-08-11T15:46:44.404Z,1.70
2022-08-11T15:49:21.952Z,1.50
2022-08-11T15:51:52.502Z,1.60
2022-08-11T15:54:22.522Z,1.60
2022-08-11T15:56:52.058Z,1.55
2022-08-11T15:59:42.932Z,1.45
2022-08-11T16:02:32.912Z,1.58
2022-08-11T16:05:04.471Z,1.70
2022-08-11T16:07:36.326Z,1.70
2022-08-11T16:10:10.866Z,2.08
2022-08-11T16:13:18.207Z,1.73
2022-08-11T16:16:05.490Z,1.80
2022-08-11T16:18:41.729Z,1.58
2022-08-11T16:21:26.093Z,1.95
2022-08-11T16:24:01.593Z,1.67
2022-08-11T16:27:09.352Z,1.70
2022-08-11T16:29:21.616Z,1.52
2022-08-11T16:32:11.390Z,1.77
2022-08-11T16:34:58.098Z,1.90
2022-08-11T16:37:46.334Z,1.58
2022-08-11T16:40:16.121Z,1.45
2022-08-11T16:43:09.965Z,1.77
2022-08-11T16:45:58.256Z,1.70
2022-08-11T16:48:37.457Z,1.70
2022-08-11T16:51:06.920Z,1.75
2022-08-11T16:54:04.008Z,1.70
2022-08-11T16:56:29.150Z,1.70
2022-08-11T16:59:17.120Z,1.58
2022-08-11T17:01:48.000Z,1.67
2022-08-11T17:04:33.429Z,1.75
2022-08-11T17:07:41.643Z,2.03
2022-08-11T17:10:51.287Z,1.38
2022-08-11T17:13:24.388Z,1.83
2022-08-11T17:16:11.997Z,1.58
2022-08-11T17:18:44.779Z,1.75
2022-08-11T17:21:15.736Z,1.75
2022-08-11T17:23:50.437Z,1.40
2022-08-11T17:26:22.625Z,1.90
2022-08-11T17:28:53.190Z,1.90
2022-08-11T17:31:42.298Z,1.80
2022-08-11T17:34:28.665Z,1.42
2022-08-11T17:36:57.780Z,1.65
2022-08-11T17:39:29.696Z,1.60
2022-08-11T17:42:17.377Z,1.67
2022-08-11T17:45:04.464Z,1.60
2022-08-11T17:47:51.081Z,1.88
2022-08-11T17:50:22.038Z,1.67
2022-08-11T17:53:08.450Z,1.70
2022-08-11T17:55:55.130Z,2.05
2022-08-11T17:58:45.484Z,1.80
2022-08-11T18:01:14.429Z,1.52
2022-08-11T18:03:57.635Z,1.80
2022-08-11T18:06:32.597Z,1.83
2022-08-11T18:09:22.006Z,3.33
2022-08-11T18:12:11.576Z,2.70
2022-08-11T18:15:00.057Z,2.10
2022-08-11T18:17:45.960Z,2.10
2022-08-11T18:20:33.129Z,1.75
2022-08-11T18:23:21.024Z,1.83
2022-08-11T18:26:27.977Z,1.90
2022-08-11T18:29:15.568Z,1.80
2022-08-11T18:32:06.179Z,1.73
2022-08-11T18:34:55.278Z,1.85
2022-08-11T18:37:45.015Z,1.73
2022-08-11T18:40:33.600Z,1.77
2022-08-11T18:43:26.498Z,1.90
2022-08-11T18:46:15.966Z,1.80
2022-08-11T18:49:11.813Z,1.90
2022-08-11T18:52:10.086Z,1.73
2022-08-11T18:54:57.169Z,2.22
2022-08-11T18:57:50.128Z,2.20
2022-08-11T19:00:41.681Z,2.47
2022-08-11T19:03:29.343Z,2.45
2022-08-11T19:06:38.213Z,2.40
2022-08-11T19:09:26.055Z,1.85
2022-08-11T19:12:12.944Z,1.83
2022-08-11T19:15:00.179Z,2.42
2022-08-11T19:17:46.903Z,4.60
2022-08-11T19:20:33.942Z,6.05
2022-08-11T19:23:22.924Z,5.80
2022-08-11T19:26:09.644Z,7.47
2022-08-11T19:28:56.372Z,7.40
2022-08-11T19:31:44.995Z,5.00
2022-08-11T19:34:32.904Z,4.45
2022-08-11T19:37:24.081Z,2.53
2022-08-11T19:40:12.934Z,2.13
2022-08-11T19:43:00.385Z,2.22
2022-08-11T19:45:52.540Z,1.98
2022-08-11T19:48:39.337Z,2.13
2022-08-11T19:51:25.677Z,1.90
2022-08-11T19:54:12.057Z,2.47
2022-08-11T19:56:59.546Z,2.10
2022-08-11T19:59:46.465Z,2.13
2022-08-11T20:02:32.352Z,2.30
2022-08-11T20:05:18.391Z,2.05
2022-08-11T20:08:05.146Z,2.28
2022-08-11T20:10:52.831Z,2.40
2022-08-11T20:13:42.596Z,2.28
2022-08-11T20:16:30.350Z,2.42
2022-08-11T20:19:16.985Z,2.03
2022-08-11T20:22:08.261Z,2.65
2022-08-11T20:24:56.709Z,2.20
2022-08-11T20:27:43.121Z,2.30
2022-08-11T20:30:31.581Z,2.63
2022-08-11T20:33:18.028Z,2.28
2022-08-11T20:36:08.622Z,2.47
2022-08-11T20:38:56.608Z,2.20
2022-08-11T20:41:58.182Z,2.30
2022-08-11T20:44:46.466Z,2.33
2022-08-11T20:47:59.076Z,2.20
2022-08-11T20:50:41.485Z,2.17
2022-08-11T20:53:32.170Z,2.30
2022-08-11T20:56:22.714Z,2.30
2022-08-11T20:59:17.894Z,2.30
2022-08-11T21:02:09.611Z,2.90
2022-08-11T21:04:57.497Z,2.80
2022-08-11T21:10:52.883Z,2.55
2022-08-11T21:13:39.829Z,2.58
2022-08-11T21:16:27.696Z,2.40
2022-08-11T21:19:16.733Z,2.38
2022-08-11T21:22:04.554Z,2.50
2022-08-11T21:24:52.246Z,2.70
2022-08-11T21:27:39.702Z,2.58
2022-08-11T21:30:26.328Z,2.35
2022-08-11T21:33:12.876Z,2.40
2022-08-11T21:35:59.365Z,2.60
2022-08-11T21:38:47.889Z,2.13
2022-08-11T21:41:34.389Z,2.63
2022-08-11T21:44:20.817Z,4.88
2022-08-11T21:47:06.790Z,2.90
2022-08-11T21:49:54.436Z,2.70
2022-08-11T21:52:40.617Z,2.58
2022-08-11T21:55:28.787Z,2.67
2022-08-11T21:58:15.120Z,2.53
2022-08-11T22:01:01.633Z,2.25
2022-08-11T22:03:49.780Z,2.55
2022-08-11T22:06:37.069Z,2.58
2022-08-11T22:09:23.663Z,2.70
2022-08-11T22:12:34.207Z,2.78
2022-08-11T22:15:17.669Z,2.53
2022-08-11T22:18:03.647Z,2.70
2022-08-11T22:20:49.535Z,2.72
2022-08-11T22:23:37.053Z,2.70
2022-08-11T22:26:24.315Z,2.80
2022-08-11T22:29:11.864Z,2.95
2022-08-11T22:31:58.852Z,2.60
2022-08-11T22:34:52.850Z,2.40
2022-08-11T22:37:39.871Z,2.60
2022-08-11T22:40:26.630Z,3.03
2022-08-11T22:43:12.420Z,2.50
2022-08-11T22:45:59.992Z,2.40
2022-08-11T22:48:47.792Z,2.50
2022-08-11T22:51:34.542Z,2.55
2022-08-11T22:54:21.562Z,2.78
2022-08-11T22:57:07.956Z,2.70
2022-08-11T22:59:57.364Z,2.50
2022-08-11T23:02:45.267Z,2.40
2022-08-11T23:05:33.088Z,2.42
2022-08-11T23:08:19.490Z,2.60
2022-08-11T23:11:05.811Z,2.97
2022-08-11T23:13:52.382Z,3.03
2022-08-11T23:16:38.926Z,2.75
2022-08-11T23:20:07.827Z,2.80
2022-08-11T23:22:49.365Z,2.47
2022-08-11T23:25:36.952Z,2.80
2022-08-11T23:28:25.769Z,2.90
2022-08-11T23:31:13.581Z,2.80
2022-08-11T23:34:00.995Z,2.90
2022-08-11T23:36:48.319Z,2.90
2022-08-11T23:39:34.732Z,2.78
2022-08-11T23:42:20.737Z,3.08
2022-08-11T23:45:09.567Z,3.00
2022-08-11T23:47:57.815Z,2.60
2022-08-11T23:50:44.311Z,5.82
2022-08-11T23:53:31.954Z,3.90
2022-08-11T23:56:19.144Z,4.20
2022-08-11T23:59:09.071Z,3.42
